RKPK

Gimhae International Airport

Busan, South Korea
TAF RKPK 151100Z 1512/1618 03008KT 9999 BKN030 TN27/1521Z TX32/1606Z TEMPO 1513/1606 03016KT 4800 -RA BR SCT015 BKN030
Issued Valid From Valid To
Aug-15 @ 11:00 UTC
(2 hours ago)
Aug-15 @ 12:00 UTC
(41 minutes ago)
Aug-16 @ 18:00 UTC
(-1 days ago)
Aug-15 @ 12:00 to Aug-16 @ 18:00
TAF RKPK 151100Z 1512/1618 03008KT 9999 BKN030 TN27/1521Z TX32/1606Z
Wind Visibility Clouds
30° at 8 knots 10,000+ meters
  • Broken at 3,000' AGL
Temporary Aug-15 @ 13:00 to Aug-16 @ 06:00
TEMPO 1513/1606 03016KT 4800 -RA BR SCT015 BKN030
Wind Visibility Clouds Conditions
30° at 16 knots 4,796 meters
  • Scattered at 1,500' AGL
  • Broken at 3,000' AGL
  • Light Rain
  • Mist
TAF RKPK 151100Z 1512/1618 03008KT 9999 BKN030 TN27/1521Z TX32/1606Z TEMPO 1513/1606 03016KT 4800 -RA BR SCT015 BKN030
Issued Aug-15 @ 11:00 UTC
(2 hours ago)
Valid From Aug-15 @ 12:00 UTC
(41 minutes ago)
Valid To Aug-16 @ 18:00 UTC
(-1 days ago)
Aug-15 @ 12:00 - Aug-16 @ 18:00
Wind Visibility
30° at 8 knots 10,000+ meters
Clouds
  • Broken at 3,000' AGL
Temporary Aug-15 @ 13:00 - Aug-16 @ 06:00
Wind Visibility
30° at 16 knots 4,796 meters
Clouds
  • Scattered at 1,500' AGL
  • Broken at 3,000' AGL
Conditions
  • Light Rain
  • Mist